Time;durP1;ratioP1;P1;durP2;ratioP2;P2;SDS_P1;SDS_P2;PMS_P1;PMS_P2;Temp;Humidity;BMP_temperature;BMP_pressure;BME280_temperature;BME280_humidity;BME280_pressure;Samples;Min_cycle;Max_cycle;Signal;HPM_P1;HPM_P2
2021/12/31 00:03:48;;;;;;;56.33;52.80;;;;;;;14.87;100.00;101557.52;1969749;72;86577;-69
2021/12/31 00:09:32;;;;;;;54.73;51.53;;;;;;;14.85;100.00;101543.83;1809854;78;86348;-68
2021/12/31 00:15:17;;;;;;;52.60;49.30;;;;;;;14.89;100.00;101547.69;1910531;73;85585;-67
2021/12/31 00:21:03;;;;;;;54.60;51.20;;;;;;;14.87;100.00;101538.78;1931678;73;86857;-68
2021/12/31 00:26:50;;;;;;;56.40;53.00;;;;;;;14.84;100.00;101537.15;1808473;78;86786;-67
2021/12/31 00:32:32;;;;;;;53.77;50.40;;;;;;;14.76;100.00;101550.39;1810082;78;86158;-69
2021/12/31 00:38:17;;;;;;;52.37;49.13;;;;;;;14.71;100.00;101547.64;1930492;73;86748;-67
2021/12/31 00:44:02;;;;;;;53.03;49.73;;;;;;;14.68;100.00;101544.02;1817857;77;85560;-70
2021/12/31 00:49:47;;;;;;;56.10;52.37;;;;;;;14.66;100.00;101547.12;1835233;76;85849;-70
2021/12/31 00:55:32;;;;;;;57.60;53.60;;;;;;;14.63;100.00;101539.89;1807803;78;87032;-70
2021/12/31 01:01:19;;;;;;;57.60;53.90;;;;;;;14.56;100.00;101545.82;1922930;74;86108;-68
2021/12/31 01:07:03;;;;;;;56.13;52.57;;;;;;;14.55;100.00;101558.96;1926106;73;85878;-69
2021/12/31 01:12:50;;;;;;;57.13;53.50;;;;;;;14.47;100.00;101556.81;1810408;78;86665;-70
2021/12/31 01:24:37;;;;;;;55.43;51.93;;;;;;;14.31;100.00;101544.64;1798977;77;85478;-71
2021/12/31 01:30:20;;;;;;;60.63;56.37;;;;;;;14.38;100.00;101569.75;1884089;74;86329;-68
2021/12/31 01:36:06;;;;;;;56.30;52.70;;;;;;;14.23;100.00;101560.08;1927421;73;86819;-68
2021/12/31 01:41:51;;;;;;;54.53;50.93;;;;;;;14.34;100.00;101568.63;1944554;71;39618;-70
2021/12/31 01:47:55;;;;;;;56.30;52.90;;;;;;;14.37;100.00;101568.11;1852379;76;86484;-69
2021/12/31 01:53:32;;;;;;;58.73;55.00;;;;;;;14.36;100.00;101569.22;1795439;78;86502;-71
2021/12/31 01:59:18;;;;;;;56.80;53.07;;;;;;;14.39;100.00;101567.23;1927862;73;86313;-68
2021/12/31 02:05:05;;;;;;;54.73;51.27;;;;;;;14.43;100.00;101561.32;1914383;74;86798;-68
2021/12/31 02:10:52;;;;;;;59.27;55.50;;;;;;;14.45;100.00;101557.69;1985604;71;39693;-70
2021/12/31 02:16:39;;;;;;;55.47;52.07;;;;;;;14.45;100.00;101552.09;1834289;76;86507;-70
2021/12/31 02:22:35;;;;;;;56.23;52.57;;;;;;;14.41;100.00;101541.80;1835680;76;86753;-68
2021/12/31 02:28:18;;;;;;;55.87;52.17;;;;;;;14.40;100.00;101538.72;1908904;74;86839;-69
2021/12/31 02:34:02;;;;;;;60.23;56.27;;;;;;;14.24;100.00;101514.25;1950301;73;86903;-68
2021/12/31 02:39:46;;;;;;;59.10;55.27;;;;;;;14.24;100.00;101521.23;1863770;75;86434;-69
2021/12/31 02:45:34;;;;;;;58.77;55.17;;;;;;;14.29;100.00;101513.38;1807111;78;86344;-71
2021/12/31 02:51:16;;;;;;;57.97;54.03;;;;;;;14.28;100.00;101507.50;1909500;74;86535;-68
2021/12/31 02:57:01;;;;;;;57.70;54.10;;;;;;;14.23;100.00;101504.19;1924444;71;39678;-68
2021/12/31 03:02:46;;;;;;;57.07;53.13;;;;;;;14.23;100.00;101517.33;1855416;76;86283;-68
2021/12/31 03:08:34;;;;;;;56.93;53.23;;;;;;;14.25;100.00;101524.87;1798787;78;86266;-70
2021/12/31 03:14:20;;;;;;;54.17;50.73;;;;;;;14.28;100.00;101530.70;1804418;78;86572;-70
2021/12/31 03:20:10;;;;;;;54.57;51.13;;;;;;;14.38;100.00;101512.45;1927663;73;86943;-69
2021/12/31 03:25:54;;;;;;;57.90;54.00;;;;;;;14.38;100.00;101497.08;1941162;70;39714;-70
2021/12/31 03:31:37;;;;;;;55.30;51.60;;;;;;;14.39;100.00;101491.77;1845070;76;86465;-69
2021/12/31 03:37:21;;;;;;;55.53;51.23;;;;;;;14.36;100.00;101488.17;1892946;74;86655;-68
2021/12/31 03:43:07;;;;;;;55.97;52.03;;;;;;;14.33;100.00;101472.53;1927979;73;86462;-70
2021/12/31 03:48:52;;;;;;;57.80;54.07;;;;;;;14.38;100.00;101463.53;1958426;71;39636;-67
2021/12/31 03:54:37;;;;;;;59.30;55.13;;;;;;;14.39;100.00;101474.16;1824675;77;86683;-68
2021/12/31 04:00:22;;;;;;;55.50;51.43;;;;;;;14.42;100.00;101459.02;1888963;75;86470;-70
2021/12/31 04:06:07;;;;;;;58.67;54.53;;;;;;;14.40;100.00;101471.08;1900454;72;86513;-69
2021/12/31 04:11:51;;;;;;;56.67;52.83;;;;;;;14.40;100.00;101440.33;1977594;71;39800;-68
2021/12/31 04:17:37;;;;;;;58.40;54.07;;;;;;;14.39;100.00;101437.81;1877786;74;86669;-68
2021/12/31 04:23:28;;;;;;;55.60;51.97;;;;;;;14.41;100.00;101423.83;1847761;76;85701;-70
2021/12/31 04:29:11;;;;;;;57.93;54.00;;;;;;;14.43;100.00;101429.11;1942458;72;86271;-69
2021/12/31 04:34:55;;;;;;;57.33;53.20;;;;;;;14.44;100.00;101446.16;1949337;71;39491;-69
2021/12/31 04:40:39;;;;;;;59.53;55.17;;;;;;;14.45;100.00;101448.66;1850135;75;86627;-69
2021/12/31 04:46:22;;;;;;;57.40;53.53;;;;;;;14.45;100.00;101451.46;1881013;75;86476;-69
2021/12/31 04:52:07;;;;;;;57.87;53.77;;;;;;;14.46;100.00;101439.72;1913471;73;86050;-68
2021/12/31 04:57:52;;;;;;;58.33;54.27;;;;;;;14.42;100.00;101431.62;1981286;71;45443;-71
2021/12/31 05:03:29;;;;;;;58.70;54.17;;;;;;;14.43;100.00;101403.39;1827742;78;85144;-69
2021/12/31 05:06:01;;;;;;;54.33;50.47;;;;;;;14.39;100.00;101430.27;1739315;79;938723;-70
2021/12/31 05:08:31;;;;;;;56.77;52.93;;;;;;;14.37;100.00;101422.77;1750877;79;939061;-68
2021/12/31 05:11:01;;;;;;;57.13;52.80;;;;;;;14.42;100.00;101434.42;1739396;79;939518;-68
2021/12/31 05:16:47;;;;;;;54.47;50.77;;;;;;;14.44;100.00;101440.56;1926616;72;86160;-70
2021/12/31 05:22:33;;;;;;;58.10;53.90;;;;;;;14.43;100.00;101453.70;1809572;78;86700;-70
2021/12/31 05:28:16;;;;;;;54.77;50.83;;;;;;;14.44;100.00;101434.97;1902433;72;86428;-70
2021/12/31 05:34:00;;;;;;;54.10;49.77;;;;;;;14.45;100.00;101447.83;1984996;71;39696;-68
2021/12/31 05:39:45;;;;;;;56.07;51.77;;;;;;;14.49;100.00;101454.48;1832760;76;86708;-69
2021/12/31 05:45:29;;;;;;;57.17;52.73;;;;;;;14.49;100.00;101453.09;1884394;74;86284;-69
2021/12/31 05:51:13;;;;;;;55.07;51.00;;;;;;;14.50;100.00;101443.58;1910284;74;86702;-70
2021/12/31 05:56:58;;;;;;;54.33;50.27;;;;;;;14.48;100.00;101429.89;1949670;71;39646;-69
2021/12/31 06:02:42;;;;;;;58.20;53.83;;;;;;;14.41;100.00;101381.07;1838673;76;86727;-69
2021/12/31 06:08:19;;;;;;;57.43;53.10;;;;;;;14.31;100.00;101418.88;1770117;79;86747;-69
2021/12/31 06:10:50;;;;;;;57.37;52.97;;;;;;;14.30;100.00;101421.39;1695128;81;937895;-68
2021/12/31 06:13:21;;;;;;;59.03;55.03;;;;;;;14.27;100.00;101422.83;1707115;82;940012;-69
2021/12/31 06:15:57;;;;;;;60.25;55.60;;;;;;;14.30;100.00;101415.80;1695115;81;939727;-69
2021/12/31 06:18:24;;;;;;;60.12;55.52;;;;;;;14.29;100.00;101416.95;1706262;82;937986;-68
2021/12/31 06:20:56;;;;;;;57.97;53.77;;;;;;;14.30;100.00;101466.11;1695875;82;939771;-68
2021/12/31 06:23:26;;;;;;;58.27;54.07;;;;;;;14.30;100.00;101487.06;1706519;81;937949;-69
2021/12/31 06:29:10;;;;;;;62.37;57.30;;;;;;;14.28;100.00;101490.17;1947674;72;86676;-69
2021/12/31 06:34:57;;;;;;;62.03;57.20;;;;;;;14.27;100.00;101466.14;1984409;71;39766;-71
2021/12/31 06:40:42;;;;;;;60.50;55.90;;;;;;;14.27;100.00;101452.17;1836003;76;87007;-68
2021/12/31 06:46:26;;;;;;;60.67;56.07;;;;;;;14.33;100.00;101448.21;1872237;74;86821;-68
2021/12/31 06:52:13;;;;;;;62.97;57.93;;;;;;;14.38;100.00;101466.33;1918035;74;87055;-68
2021/12/31 06:57:57;;;;;;;60.67;55.67;;;;;;;14.35;100.00;101493.48;1986195;71;39515;-69
2021/12/31 07:03:42;;;;;;;59.70;55.03;;;;;;;14.37;100.00;101540.16;1840822;76;86612;-69
2021/12/31 07:09:28;;;;;;;61.60;56.93;;;;;;;14.39;100.00;101579.81;1902460;73;86445;-67
2021/12/31 07:15:13;;;;;;;64.60;59.93;;;;;;;14.36;100.00;101594.94;1915959;74;86639;-68
2021/12/31 07:20:58;;;;;;;60.87;56.37;;;;;;;14.30;100.00;101565.31;1933775;71;39668;-69
2021/12/31 07:26:42;;;;;;;65.17;60.27;;;;;;;14.22;100.00;101554.21;1839375;76;86457;-69
2021/12/31 07:32:26;;;;;;;63.30;58.00;;;;;;;14.16;100.00;101530.25;1871815;75;86427;-71
2021/12/31 07:38:18;;;;;;;66.17;60.93;;;;;;;14.03;100.00;101540.70;1865433;73;86526;-69
2021/12/31 07:43:57;;;;;;;66.33;61.50;;;;;;;13.94;100.00;101558.64;1975602;71;39599;-69
2021/12/31 07:49:41;;;;;;;64.37;59.47;;;;;;;13.80;100.00;101565.99;1850079;76;86364;-71
2021/12/31 07:55:27;;;;;;;61.40;56.80;;;;;;;13.71;100.00;101562.70;1886232;73;85541;-68
2021/12/31 08:01:16;;;;;;;61.57;57.03;;;;;;;13.64;100.00;101544.88;1911705;74;85624;-70
2021/12/31 08:07:00;;;;;;;65.90;61.30;;;;;;;13.61;100.00;101577.55;1982330;71;39574;-71
2021/12/31 08:12:44;;;;;;;68.60;64.10;;;;;;;13.60;100.00;101594.05;1830184;76;86456;-70
2021/12/31 08:18:29;;;;;;;62.50;57.50;;;;;;;13.68;100.00;101608.80;1884449;73;85604;-70
2021/12/31 08:24:13;;;;;;;61.23;57.03;;;;;;;13.67;100.00;101637.27;1931714;73;86749;-73
2021/12/31 08:29:56;;;;;;;55.90;52.03;;;;;;;13.74;100.00;101636.10;1980709;71;39602;-71
2021/12/31 08:35:40;;;;;;;58.57;54.20;;;;;;;13.86;100.00;101641.62;1855237;75;86729;-74
2021/12/31 08:41:24;;;;;;;64.10;59.43;;;;;;;13.81;100.00;101648.66;1894165;73;86769;-70
2021/12/31 08:47:08;;;;;;;60.80;56.70;;;;;;;13.84;100.00;101651.42;1919869;72;86237;-70
2021/12/31 08:52:52;;;;;;;62.73;58.30;;;;;;;13.75;100.00;101628.01;1983270;71;44495;-70
2021/12/31 08:58:36;;;;;;;61.03;56.80;;;;;;;13.79;100.00;101640.27;1830671;76;86806;-70
2021/12/31 09:04:21;;;;;;;56.73;52.60;;;;;;;13.82;100.00;101667.05;1883434;75;85544;-70
2021/12/31 09:10:08;;;;;;;59.03;54.93;;;;;;;13.89;100.00;101699.72;1915171;72;85735;-71
2021/12/31 09:15:52;;;;;;;61.97;58.13;;;;;;;13.92;100.00;101699.13;1943429;71;39456;-70
2021/12/31 09:21:36;;;;;;;62.93;58.93;;;;;;;13.89;100.00;101701.67;1848621;76;86503;-71
2021/12/31 09:27:22;;;;;;;62.30;58.40;;;;;;;13.91;100.00;101718.95;1860879;75;85657;-71
2021/12/31 09:33:05;;;;;;;57.40;53.63;;;;;;;13.90;100.00;101729.33;1936372;73;86635;-68
2021/12/31 09:38:51;;;;;;;62.40;58.60;;;;;;;13.90;100.00;101727.09;1987867;71;39757;-69
2021/12/31 09:44:37;;;;;;;64.17;60.37;;;;;;;13.82;100.00;101732.68;1877403;74;86370;-67
2021/12/31 09:50:24;;;;;;;64.00;60.30;;;;;;;13.87;100.00;101736.02;1873114;75;86334;-69
2021/12/31 09:56:10;;;;;;;64.23;60.30;;;;;;;13.97;100.00;101752.75;1926596;73;86781;-69
2021/12/31 10:01:56;;;;;;;65.73;61.53;;;;;;;14.12;100.00;101784.80;1935728;71;39449;-68
2021/12/31 10:07:46;;;;;;;63.87;59.80;;;;;;;14.20;100.00;101787.02;1802919;77;86430;-70
2021/12/31 10:13:34;;;;;;;60.30;56.53;;;;;;;14.24;100.00;101798.45;1798908;79;86662;-69
2021/12/31 10:19:20;;;;;;;58.47;54.77;;;;;;;14.28;100.00;101804.58;1878630;75;85685;-68
2021/12/31 10:25:17;;;;;;;67.97;64.07;;;;;;;14.27;100.00;101825.82;1948198;72;86502;-66
2021/12/31 10:31:17;;;;;;;57.50;53.80;;;;;;;14.30;100.00;101827.47;1924888;71;39450;-68
2021/12/31 10:37:06;;;;;;;60.50;56.70;;;;;;;14.32;100.00;101821.61;1901626;72;86508;-67
2021/12/31 10:42:50;;;;;;;65.87;62.00;;;;;;;14.34;100.00;101820.74;1951444;71;39457;-66
2021/12/31 10:48:44;;;;;;;62.40;58.10;;;;;;;14.36;100.00;101802.61;1884363;74;86192;-68
2021/12/31 10:54:36;;;;;;;59.63;55.40;;;;;;;14.38;100.00;101796.72;1795567;78;85610;-67
2021/12/31 11:00:18;;;;;;;64.77;60.60;;;;;;;14.39;100.00;101781.63;1917361;74;86340;-66
2021/12/31 11:06:07;;;;;;;60.93;57.03;;;;;;;14.44;100.00;101786.63;1923610;73;86761;-66
2021/12/31 11:11:53;;;;;;;60.80;56.20;;;;;;;14.59;100.00;101783.73;1984057;71;39545;-67
2021/12/31 11:17:38;;;;;;;59.83;55.63;;;;;;;14.65;100.00;101778.95;1843081;76;86418;-68
2021/12/31 11:23:30;;;;;;;63.23;58.83;;;;;;;14.56;100.00;101772.30;1866979;75;85652;-69
2021/12/31 11:29:17;;;;;;;64.90;60.13;;;;;;;14.63;100.00;101759.41;1915140;74;86730;-66
2021/12/31 11:31:49;;;;;;;60.13;55.77;;;;;;;14.59;100.00;101752.97;1868152;74;938738;-68
2021/12/31 11:37:47;;;;;;;68.27;63.43;;;;;;;14.79;100.00;101763.20;1885114;74;86265;-67
2021/12/31 11:44:10;;;;;;;61.40;57.33;;;;;;;14.91;100.00;101785.20;1982427;71;39657;-67
2021/12/31 11:50:06;;;;;;;66.67;62.30;;;;;;;14.93;100.00;101786.56;1978955;71;39535;-66
2021/12/31 11:55:54;;;;;;;63.33;58.77;;;;;;;15.01;100.00;101797.72;1944154;71;39653;-66
2021/12/31 12:02:07;;;;;;;63.10;58.97;;;;;;;15.12;100.00;101795.09;1984868;71;39604;-67
2021/12/31 12:07:54;;;;;;;59.63;55.63;;;;;;;15.03;100.00;101802.44;1974602;71;39773;-68
2021/12/31 12:13:46;;;;;;;59.03;55.20;;;;;;;15.23;100.00;101812.66;1976405;71;85875;-66
2021/12/31 12:16:53;;;;;;;56.23;52.37;;;;;;;15.20;100.00;101829.45;1899392;73;938043;-67
2021/12/31 12:22:50;;;;;;;57.13;53.23;;;;;;;15.30;100.00;101806.14;1825227;76;86171;-69
2021/12/31 12:28:31;;;;;;;57.83;53.63;;;;;;;15.40;100.00;101807.45;1807001;78;85714;-70
2021/12/31 12:34:18;;;;;;;60.07;55.87;;;;;;;15.42;100.00;101822.82;1920476;74;87053;-67
2021/12/31 12:40:07;;;;;;;56.67;52.63;;;;;;;15.47;100.00;101812.14;1923690;73;86469;-68
2021/12/31 12:45:53;;;;;;;60.07;55.50;;;;;;;15.46;100.00;101820.27;1927429;71;39778;-67
2021/12/31 12:51:48;;;;;;;58.60;54.47;;;;;;;15.44;100.00;101826.17;1803346;78;85291;-69
2021/12/31 12:57:36;;;;;;;54.57;50.73;;;;;;;15.52;100.00;101854.14;1910149;74;86740;-70
2021/12/31 13:03:23;;;;;;;55.03;51.23;;;;;;;15.56;100.00;101841.21;1882095;75;86385;-68
2021/12/31 13:09:19;;;;;;;54.93;50.73;;;;;;;15.67;100.00;101856.78;1843225;75;86485;-69
2021/12/31 13:15:05;;;;;;;56.07;52.07;;;;;;;15.48;100.00;101863.66;1926567;73;86265;-69
2021/12/31 13:20:48;;;;;;;54.43;50.73;;;;;;;15.56;100.00;101865.02;1872484;74;86082;-70
2021/12/31 13:26:34;;;;;;;57.13;53.13;;;;;;;15.61;100.00;101855.17;1811875;78;86581;-69
2021/12/31 13:32:20;;;;;;;52.60;48.90;;;;;;;15.63;100.00;101850.66;1938187;72;86463;-71
2021/12/31 13:38:07;;;;;;;52.87;49.27;;;;;;;15.61;100.00;101854.33;1911027;72;86304;-70
2021/12/31 13:43:54;;;;;;;55.27;51.10;;;;;;;15.63;100.00;101850.66;1979318;71;39588;-71
2021/12/31 13:49:50;;;;;;;54.87;50.80;;;;;;;15.58;100.00;101861.91;1827653;76;86358;-71
2021/12/31 13:55:39;;;;;;;52.33;48.50;;;;;;;15.66;100.00;101844.48;1888923;74;86437;-70
2021/12/31 14:01:23;;;;;;;54.47;50.60;;;;;;;15.70;100.00;101840.77;1886948;73;86479;-70
2021/12/31 14:07:33;;;;;;;51.97;47.93;;;;;;;15.75;100.00;101837.08;1883120;74;86295;-68
2021/12/31 14:13:18;;;;;;;54.73;50.87;;;;;;;15.70;100.00;101837.16;1883811;75;86662;-69
2021/12/31 14:19:02;;;;;;;55.30;51.10;;;;;;;15.53;100.00;101850.77;1817809;77;87018;-68
2021/12/31 14:24:48;;;;;;;56.03;52.13;;;;;;;15.54;100.00;101846.81;1970756;71;86313;-67
2021/12/31 14:30:31;;;;;;;54.53;50.83;;;;;;;15.43;100.00;101844.66;1807855;78;86065;-68
2021/12/31 14:36:17;;;;;;;52.93;48.93;;;;;;;15.49;100.00;101854.11;1934562;73;86068;-68
2021/12/31 14:42:01;;;;;;;54.23;50.37;;;;;;;15.57;100.00;101847.09;1985304;71;39672;-68
2021/12/31 14:47:46;;;;;;;55.00;51.17;;;;;;;15.59;100.00;101866.38;1821969;77;86645;-70
2021/12/31 14:53:32;;;;;;;54.50;50.53;;;;;;;15.60;100.00;101875.06;1808647;78;86547;-68
2021/12/31 14:59:17;;;;;;;56.07;52.03;;;;;;;15.59;100.00;101875.62;1936985;73;86814;-69
2021/12/31 15:05:03;;;;;;;55.87;51.53;;;;;;;15.69;100.00;101883.11;1909744;72;86419;-69
2021/12/31 15:10:48;;;;;;;53.43;49.20;;;;;;;15.57;100.00;101889.09;1795072;78;86242;-77
2021/12/31 15:16:32;;;;;;;56.30;52.10;;;;;;;15.59;100.00;101904.19;1808018;78;85662;-73
2021/12/31 15:22:16;;;;;;;54.27;49.77;;;;;;;15.47;100.00;101917.14;1906715;74;86391;-70
2021/12/31 15:27:59;;;;;;;57.27;52.77;;;;;;;15.49;100.00;101928.31;1985518;71;39727;-73
2021/12/31 15:33:49;;;;;;;56.87;52.07;;;;;;;15.46;100.00;101933.11;1810796;78;85573;-77
2021/12/31 15:39:35;;;;;;;57.00;52.07;;;;;;;15.46;100.00;101947.67;1902607;74;86631;-73
2021/12/31 15:45:20;;;;;;;56.47;51.87;;;;;;;15.36;100.00;101972.37;1871637;74;86639;-72
2021/12/31 15:51:04;;;;;;;55.60;51.20;;;;;;;15.42;100.00;101965.63;1921715;72;86921;-72
2021/12/31 15:56:49;;;;;;;57.23;52.03;;;;;;;15.43;100.00;101981.86;1892788;74;86071;-77
2021/12/31 16:02:33;;;;;;;61.03;56.40;;;;;;;15.42;100.00;101992.78;1798909;77;86498;-77
2021/12/31 16:08:17;;;;;;;56.33;51.97;;;;;;;15.33;100.00;102007.95;1926586;71;86570;-73
2021/12/31 16:14:01;;;;;;;58.87;53.70;;;;;;;15.26;100.00;102015.84;1977216;71;39500;-72
2021/12/31 16:19:47;;;;;;;58.50;53.13;;;;;;;15.19;100.00;102019.50;1801819;78;86202;-70
2021/12/31 16:25:31;;;;;;;60.93;55.17;;;;;;;14.76;100.00;102014.68;1808349;78;85995;-71
2021/12/31 16:31:14;;;;;;;59.90;54.23;;;;;;;14.73;100.00;102028.66;1918456;74;86553;-72
2021/12/31 16:37:02;;;;;;;62.53;57.00;;;;;;;14.72;100.00;102028.96;1975013;70;39457;-70
2021/12/31 16:42:49;;;;;;;60.87;55.47;;;;;;;14.67;100.00;102030.37;1797595;78;86320;-71
2021/12/31 16:48:34;;;;;;;58.43;53.07;;;;;;;14.77;100.00;102050.73;1885117;74;86463;-75
2021/12/31 16:54:18;;;;;;;62.17;56.43;;;;;;;14.69;100.00;102070.06;1889942;74;86278;-73
2021/12/31 17:00:03;;;;;;;59.53;54.03;;;;;;;14.76;100.00;102076.22;1862037;75;86249;-73
2021/12/31 17:05:48;;;;;;;62.00;56.70;;;;;;;14.70;100.00;102078.73;1797519;78;86635;-72
2021/12/31 17:11:32;;;;;;;64.90;58.70;;;;;;;14.67;100.00;102083.50;1808898;78;86581;-71
2021/12/31 17:17:17;;;;;;;61.23;55.67;;;;;;;14.66;100.00;102087.41;1934955;73;86746;-72
2021/12/31 17:23:01;;;;;;;62.60;56.70;;;;;;;14.59;100.00;102096.92;1981990;71;39440;-70
2021/12/31 17:28:45;;;;;;;60.33;54.80;;;;;;;14.49;100.00;102099.75;1825363;75;85962;-77
2021/12/31 17:34:29;;;;;;;62.13;56.40;;;;;;;14.46;100.00;102110.66;1872580;74;86328;-78
2021/12/31 17:40:15;;;;;;;62.87;56.90;;;;;;;14.63;100.00;102127.14;1908236;73;86412;-73
2021/12/31 17:46:00;;;;;;;63.03;57.17;;;;;;;14.56;100.00;102111.47;1948479;71;40326;-71
2021/12/31 17:51:47;;;;;;;60.07;54.33;;;;;;;14.56;100.00;102098.89;1813316;78;86222;-70
2021/12/31 17:57:33;;;;;;;52.70;47.77;;;;;;;14.57;100.00;102104.77;1807736;78;86331;-77
2021/12/31 18:03:22;;;;;;;55.00;50.50;;;;;;;14.61;100.00;102106.99;1872483;75;86319;-73
2021/12/31 18:09:07;;;;;;;49.17;44.83;;;;;;;14.72;100.00;102117.87;1926087;73;86711;-78
2021/12/31 18:14:51;;;;;;;55.33;50.50;;;;;;;14.73;100.00;102118.16;1986832;70;50062;-77
2021/12/31 18:20:36;;;;;;;51.90;46.83;;;;;;;14.75;100.00;102127.68;1883791;75;86555;-78
2021/12/31 18:26:21;;;;;;;52.10;47.23;;;;;;;14.60;100.00;102129.92;1915022;73;85907;-77
2021/12/31 18:32:05;;;;;;;55.53;50.37;;;;;;;14.57;100.00;102144.48;1908995;72;86270;-71
2021/12/31 18:37:49;;;;;;;55.00;50.13;;;;;;;14.55;100.00;102150.89;1952654;71;48584;-78
2021/12/31 18:43:35;;;;;;;56.83;51.27;;;;;;;14.59;100.00;102181.38;1884151;74;86418;-76
2021/12/31 18:49:21;;;;;;;55.20;50.10;;;;;;;14.59;100.00;102196.20;1883329;73;86310;-77
2021/12/31 18:58:13;;;;;;;53.83;49.10;;;;;;;14.59;100.00;102216.33;1920634;73;86519;-71
2021/12/31 19:00:44;;;;;;;52.90;47.93;;;;;;;14.55;100.00;102220.80;1848898;74;938811;-70
2021/12/31 19:03:14;;;;;;;54.50;49.37;;;;;;;14.58;100.00;102218.87;1810727;76;939684;-71
2021/12/31 19:05:44;;;;;;;52.07;47.03;;;;;;;14.60;100.00;102222.20;1794608;75;939658;-71
2021/12/31 19:08:15;;;;;;;52.43;48.37;;;;;;;14.59;100.00;102219.13;1848681;75;941114;-71
2021/12/31 19:10:45;;;;;;;52.80;47.77;;;;;;;14.58;100.00;102225.86;1795552;75;939728;-77
2021/12/31 19:13:15;;;;;;;53.37;48.30;;;;;;;14.57;100.00;102218.58;1798701;77;940781;-78
2021/12/31 19:19:00;;;;;;;52.90;47.63;;;;;;;14.70;100.00;102230.61;1973148;71;39555;-73
2021/12/31 19:24:45;;;;;;;52.90;48.50;;;;;;;14.65;100.00;102248.78;1846448;76;85829;-71
2021/12/31 19:30:28;;;;;;;52.57;47.93;;;;;;;14.62;100.00;102254.95;1895863;74;86525;-77
2021/12/31 19:36:12;;;;;;;51.33;46.57;;;;;;;14.58;100.00;102246.28;1918726;72;86527;-79
2021/12/31 19:41:57;;;;;;;50.80;45.60;;;;;;;14.57;100.00;102242.34;1986036;71;39690;-70
2021/12/31 19:47:41;;;;;;;56.50;51.03;;;;;;;14.56;100.00;102237.31;1837331;76;86528;-77
2021/12/31 19:53:26;;;;;;;54.83;49.83;;;;;;;14.62;100.00;102221.94;1881831;73;86658;-77
2021/12/31 19:59:10;;;;;;;56.07;51.00;;;;;;;14.38;100.00;102213.23;1881206;74;86440;-75
2021/12/31 20:04:56;;;;;;;57.63;52.00;;;;;;;14.17;100.00;102205.90;1987268;71;39549;-74
2021/12/31 20:10:41;;;;;;;52.30;47.50;;;;;;;14.09;100.00;102205.89;1833174;75;86283;-76
2021/12/31 20:16:26;;;;;;;55.03;50.10;;;;;;;13.97;100.00;102213.69;1908774;73;86585;-76
2021/12/31 20:22:10;;;;;;;54.40;49.60;;;;;;;14.01;100.00;102223.20;1910650;74;86729;-79
2021/12/31 20:27:58;;;;;;;58.27;52.90;;;;;;;14.07;100.00;102216.52;1986084;71;39392;-75
2021/12/31 20:33:42;;;;;;;54.27;49.60;;;;;;;13.93;100.00;102223.17;1840654;76;86392;-76
2021/12/31 20:39:26;;;;;;;61.43;56.63;;;;;;;13.81;100.00;102237.94;1870575;74;85847;-76
2021/12/31 20:45:15;;;;;;;64.53;59.53;;;;;;;13.99;100.00;102250.59;1881607;75;86636;-72
2021/12/31 20:51:00;;;;;;;62.77;58.07;;;;;;;14.11;100.00;102245.04;1985396;71;39783;-77
2021/12/31 20:56:44;;;;;;;56.83;52.23;;;;;;;14.14;100.00;102245.03;1848478;76;86161;-75
2021/12/31 21:02:29;;;;;;;56.77;51.47;;;;;;;14.20;100.00;102255.12;1870740;75;85617;-79
2021/12/31 21:08:13;;;;;;;58.33;54.13;;;;;;;14.28;100.00;102259.33;1908185;74;86792;-71
2021/12/31 21:13:57;;;;;;;62.07;57.37;;;;;;;14.24;100.00;102256.25;1981056;71;39520;-75
2021/12/31 21:19:41;;;;;;;61.53;56.20;;;;;;;14.28;100.00;102251.78;1841297;76;86207;-77
2021/12/31 21:25:28;;;;;;;59.03;54.53;;;;;;;14.29;100.00;102242.84;1882877;74;86413;-72
2021/12/31 21:31:11;;;;;;;54.73;50.47;;;;;;;14.25;100.00;102241.72;1910674;72;86176;-75
2021/12/31 21:36:56;;;;;;;65.03;60.27;;;;;;;14.23;100.00;102251.77;1982804;71;39558;-76
2021/12/31 21:42:41;;;;;;;66.20;61.17;;;;;;;14.25;100.00;102257.09;1982450;72;86664;-75
2021/12/31 21:48:26;;;;;;;62.17;56.90;;;;;;;14.24;100.00;102237.23;1883270;73;85826;-70
2021/12/31 21:54:10;;;;;;;66.97;61.73;;;;;;;14.34;100.00;102247.02;1914970;73;86508;-77
2021/12/31 21:59:58;;;;;;;61.57;56.60;;;;;;;14.30;100.00;102237.52;1974204;71;39398;-75
2021/12/31 22:05:42;;;;;;;63.30;58.27;;;;;;;14.33;100.00;102265.78;1976129;71;86203;-79
2021/12/31 22:11:26;;;;;;;64.17;59.20;;;;;;;14.39;100.00;102271.67;1906665;73;86627;-79
2021/12/31 22:17:10;;;;;;;60.07;55.53;;;;;;;14.41;100.00;102270.02;1915074;74;85751;-73
2021/12/31 22:22:55;;;;;;;59.17;54.20;;;;;;;14.38;100.00;102269.14;1948028;71;39375;-72
2021/12/31 22:28:38;;;;;;;59.70;55.07;;;;;;;14.25;100.00;102244.52;1836469;76;86195;-70
2021/12/31 22:34:24;;;;;;;59.40;54.83;;;;;;;14.27;100.00;102243.66;1931176;72;86562;-75
2021/12/31 22:40:10;;;;;;;61.67;57.20;;;;;;;14.22;100.00;102243.65;1925154;73;85589;-73
2021/12/31 22:45:54;;;;;;;61.00;56.43;;;;;;;14.23;100.00;102237.79;1934720;71;39527;-68
2021/12/31 22:51:39;;;;;;;58.83;54.33;;;;;;;14.15;100.00;102238.33;1835807;76;85359;-74
2021/12/31 22:57:24;;;;;;;62.77;58.17;;;;;;;14.19;100.00;102229.68;1884593;74;86784;-74
2021/12/31 23:03:08;;;;;;;61.00;56.40;;;;;;;14.19;100.00;102217.10;1917851;72;86547;-75
2021/12/31 23:08:53;;;;;;;58.33;53.57;;;;;;;14.16;100.00;102213.47;1926467;71;39631;-78
2021/12/31 23:14:41;;;;;;;55.43;50.83;;;;;;;14.16;100.00;102225.20;1834616;76;85723;-70
2021/12/31 23:20:25;;;;;;;55.80;51.50;;;;;;;14.22;100.00;102233.31;1868950;74;85571;-75
2021/12/31 23:26:13;;;;;;;58.33;53.73;;;;;;;14.18;100.00;102234.13;1945798;73;86013;-75
2021/12/31 23:31:54;;;;;;;54.80;50.83;;;;;;;14.21;100.00;102230.23;1986737;71;39519;-77
2021/12/31 23:37:37;;;;;;;56.30;52.20;;;;;;;14.19;100.00;102223.24;1844192;76;86101;-70
2021/12/31 23:43:29;;;;;;;56.67;52.53;;;;;;;14.21;100.00;102216.80;1840033;75;85541;-73
2021/12/31 23:49:13;;;;;;;53.17;49.20;;;;;;;14.19;100.00;102202.28;1920350;71;85863;-70
2021/12/31 23:55:00;;;;;;;56.70;52.13;;;;;;;14.25;100.00;102194.20;1977816;71;40147;-69
